sensor_id;sensor_type;location;lat;lon;timestamp;temperature;humidity
22827;DHT22;11580;52.562;13.418;2024-01-15T00:01:17;8.20;30.00
22827;DHT22;11580;52.562;13.418;2024-01-15T00:03:44;8.10;29.80
22827;DHT22;11580;52.562;13.418;2024-01-15T00:06:11;8.10;29.90
22827;DHT22;11580;52.562;13.418;2024-01-15T00:08:38;8.10;29.90
22827;DHT22;11580;52.562;13.418;2024-01-15T00:11:05;8.10;30.00
22827;DHT22;11580;52.562;13.418;2024-01-15T00:13:32;8.10;30.00
22827;DHT22;11580;52.562;13.418;2024-01-15T00:15:59;8.10;30.00
22827;DHT22;11580;52.562;13.418;2024-01-15T00:18:28;8.00;30.00
22827;DHT22;11580;52.562;13.418;2024-01-15T00:20:55;8.00;29.90
22827;DHT22;11580;52.562;13.418;2024-01-15T00:23:22;8.00;30.00
22827;DHT22;11580;52.562;13.418;2024-01-15T00:25:51;8.00;30.00
22827;DHT22;11580;52.562;13.418;2024-01-15T00:28:18;8.00;30.00
22827;DHT22;11580;52.562;13.418;2024-01-15T00:30:45;8.00;30.00
22827;DHT22;11580;52.562;13.418;2024-01-15T00:33:12;8.00;30.70
22827;DHT22;11580;52.562;13.418;2024-01-15T00:35:41;7.90;30.00
22827;DHT22;11580;52.562;13.418;2024-01-15T00:38:09;7.90;30.50
22827;DHT22;11580;52.562;13.418;2024-01-15T00:40:36;7.90;30.00
22827;DHT22;11580;52.562;13.418;2024-01-15T00:43:03;7.90;30.00
22827;DHT22;11580;52.562;13.418;2024-01-15T00:45:33;7.90;30.00
22827;DHT22;11580;52.562;13.418;2024-01-15T00:48:00;7.90;30.00
22827;DHT22;11580;52.562;13.418;2024-01-15T00:50:27;7.90;30.00
22827;DHT22;11580;52.562;13.418;2024-01-15T00:52:56;7.90;30.00
22827;DHT22;11580;52.562;13.418;2024-01-15T00:55:23;7.90;30.00
22827;DHT22;11580;52.562;13.418;2024-01-15T00:57:50;7.90;30.00
22827;DHT22;11580;52.562;13.418;2024-01-15T01:00:17;7.90;30.00
22827;DHT22;11580;52.562;13.418;2024-01-15T01:02:45;7.90;30.00
22827;DHT22;11580;52.562;13.418;2024-01-15T01:05:12;7.90;30.00
22827;DHT22;11580;52.562;13.418;2024-01-15T01:07:39;8.00;30.00
22827;DHT22;11580;52.562;13.418;2024-01-15T01:10:08;7.80;30.00
22827;DHT22;11580;52.562;13.418;2024-01-15T01:12:36;7.80;30.00
22827;DHT22;11580;52.562;13.418;2024-01-15T01:15:04;7.80;30.00
22827;DHT22;11580;52.562;13.418;2024-01-15T01:17:32;7.80;30.00
22827;DHT22;11580;52.562;13.418;2024-01-15T01:19:59;7.70;30.00
22827;DHT22;11580;52.562;13.418;2024-01-15T01:22:29;7.60;30.00
22827;DHT22;11580;52.562;13.418;2024-01-15T01:24:56;7.60;30.00
22827;DHT22;11580;52.562;13.418;2024-01-15T01:27:25;7.50;30.00
22827;DHT22;11580;52.562;13.418;2024-01-15T01:29:52;7.50;30.10
22827;DHT22;11580;52.562;13.418;2024-01-15T01:32:19;7.50;30.20
22827;DHT22;11580;52.562;13.418;2024-01-15T01:34:47;7.40;30.40
22827;DHT22;11580;52.562;13.418;2024-01-15T01:37:14;7.30;30.40
22827;DHT22;11580;52.562;13.418;2024-01-15T01:39:42;7.30;30.60
22827;DHT22;11580;52.562;13.418;2024-01-15T01:42:10;7.30;30.70
22827;DHT22;11580;52.562;13.418;2024-01-15T01:44:39;7.30;30.70
22827;DHT22;11580;52.562;13.418;2024-01-15T01:47:06;7.30;30.80
22827;DHT22;11580;52.562;13.418;2024-01-15T01:49:34;7.20;30.90
22827;DHT22;11580;52.562;13.418;2024-01-15T01:52:05;7.20;31.00
22827;DHT22;11580;52.562;13.418;2024-01-15T01:54:34;7.20;31.00
22827;DHT22;11580;52.562;13.418;2024-01-15T01:57:04;7.20;31.00
22827;DHT22;11580;52.562;13.418;2024-01-15T01:59:34;7.20;31.70
22827;DHT22;11580;52.562;13.418;2024-01-15T02:02:04;7.20;30.80
22827;DHT22;11580;52.562;13.418;2024-01-15T02:04:32;7.20;30.80
22827;DHT22;11580;52.562;13.418;2024-01-15T02:07:01;7.20;30.90
22827;DHT22;11580;52.562;13.418;2024-01-15T02:09:28;7.10;30.90
22827;DHT22;11580;52.562;13.418;2024-01-15T02:11:55;7.10;30.90
22827;DHT22;11580;52.562;13.418;2024-01-15T02:14:22;7.10;30.70
22827;DHT22;11580;52.562;13.418;2024-01-15T02:16:50;7.10;30.60
22827;DHT22;11580;52.562;13.418;2024-01-15T02:19:18;7.00;30.50
22827;DHT22;11580;52.562;13.418;2024-01-15T02:21:46;7.00;30.50
22827;DHT22;11580;52.562;13.418;2024-01-15T02:24:14;7.00;30.50
22827;DHT22;11580;52.562;13.418;2024-01-15T02:26:42;6.90;30.50
22827;DHT22;11580;52.562;13.418;2024-01-15T02:29:10;6.90;30.60
22827;DHT22;11580;52.562;13.418;2024-01-15T02:31:39;6.80;30.80
22827;DHT22;11580;52.562;13.418;2024-01-15T02:34:06;6.80;31.00
22827;DHT22;11580;52.562;13.418;2024-01-15T02:36:33;6.80;31.70
22827;DHT22;11580;52.562;13.418;2024-01-15T02:39:00;6.80;31.80
22827;DHT22;11580;52.562;13.418;2024-01-15T02:41:29;6.80;31.10
22827;DHT22;11580;52.562;13.418;2024-01-15T02:43:56;6.80;31.00
22827;DHT22;11580;52.562;13.418;2024-01-15T02:46:23;6.80;30.80
22827;DHT22;11580;52.562;13.418;2024-01-15T02:48:50;6.80;30.80
22827;DHT22;11580;52.562;13.418;2024-01-15T02:51:17;6.80;30.80
22827;DHT22;11580;52.562;13.418;2024-01-15T02:53:45;6.80;30.90
22827;DHT22;11580;52.562;13.418;2024-01-15T02:56:12;6.90;31.10
22827;DHT22;11580;52.562;13.418;2024-01-15T02:58:40;6.90;31.20
22827;DHT22;11580;52.562;13.418;2024-01-15T03:01:07;6.90;30.90
22827;DHT22;11580;52.562;13.418;2024-01-15T03:03:34;6.90;31.00
22827;DHT22;11580;52.562;13.418;2024-01-15T03:06:02;7.00;31.80
22827;DHT22;11580;52.562;13.418;2024-01-15T03:08:29;7.00;31.00
22827;DHT22;11580;52.562;13.418;2024-01-15T03:10:56;7.10;31.00
22827;DHT22;11580;52.562;13.418;2024-01-15T03:13:24;7.10;31.00
22827;DHT22;11580;52.562;13.418;2024-01-15T03:15:53;7.20;30.90
22827;DHT22;11580;52.562;13.418;2024-01-15T03:18:20;7.20;30.50
22827;DHT22;11580;52.562;13.418;2024-01-15T03:20:47;7.20;30.60
22827;DHT22;11580;52.562;13.418;2024-01-15T03:23:14;7.30;31.20
22827;DHT22;11580;52.562;13.418;2024-01-15T03:25:41;7.30;30.40
22827;DHT22;11580;52.562;13.418;2024-01-15T03:28:08;7.30;30.20
22827;DHT22;11580;52.562;13.418;2024-01-15T03:30:36;7.40;30.30
22827;DHT22;11580;52.562;13.418;2024-01-15T03:33:04;7.40;30.20
22827;DHT22;11580;52.562;13.418;2024-01-15T03:35:31;7.40;30.00
22827;DHT22;11580;52.562;13.418;2024-01-15T03:37:59;7.40;30.80
22827;DHT22;11580;52.562;13.418;2024-01-15T03:40:26;7.50;30.10
22827;DHT22;11580;52.562;13.418;2024-01-15T03:42:53;7.50;30.00
22827;DHT22;11580;52.562;13.418;2024-01-15T03:45:20;7.50;30.60
22827;DHT22;11580;52.562;13.418;2024-01-15T03:47:47;7.50;29.90
22827;DHT22;11580;52.562;13.418;2024-01-15T03:50:16;7.50;29.90
22827;DHT22;11580;52.562;13.418;2024-01-15T03:52:43;7.50;29.70
22827;DHT22;11580;52.562;13.418;2024-01-15T03:55:10;7.60;29.90
22827;DHT22;11580;52.562;13.418;2024-01-15T03:57:37;7.60;30.40
22827;DHT22;11580;52.562;13.418;2024-01-15T04:00:06;7.60;29.90
22827;DHT22;11580;52.562;13.418;2024-01-15T04:02:34;7.60;29.70
22827;DHT22;11580;52.562;13.418;2024-01-15T04:05:01;7.60;29.80
22827;DHT22;11580;52.562;13.418;2024-01-15T04:07:30;7.60;29.70
22827;DHT22;11580;52.562;13.418;2024-01-15T04:09:57;7.60;29.50
22827;DHT22;11580;52.562;13.418;2024-01-15T04:12:25;7.60;29.60
22827;DHT22;11580;52.562;13.418;2024-01-15T04:14:52;7.60;29.60
22827;DHT22;11580;52.562;13.418;2024-01-15T04:17:19;7.70;30.10
22827;DHT22;11580;52.562;13.418;2024-01-15T04:19:47;7.70;29.60
22827;DHT22;11580;52.562;13.418;2024-01-15T04:22:14;7.80;29.70
22827;DHT22;11580;52.562;13.418;2024-01-15T04:24:43;7.70;29.60
22827;DHT22;11580;52.562;13.418;2024-01-15T04:27:10;7.70;29.30
22827;DHT22;11580;52.562;13.418;2024-01-15T04:29:37;7.70;29.50
22827;DHT22;11580;52.562;13.418;2024-01-15T04:32:05;7.70;29.40
22827;DHT22;11580;52.562;13.418;2024-01-15T04:34:33;7.70;29.40
22827;DHT22;11580;52.562;13.418;2024-01-15T04:37:00;7.70;29.90
22827;DHT22;11580;52.562;13.418;2024-01-15T04:39:27;7.70;29.30
22827;DHT22;11580;52.562;13.418;2024-01-15T04:41:55;7.70;29.20
22827;DHT22;11580;52.562;13.418;2024-01-15T04:44:22;7.70;29.00
22827;DHT22;11580;52.562;13.418;2024-01-15T04:46:50;7.70;29.30
22827;DHT22;11580;52.562;13.418;2024-01-15T04:49:17;7.70;29.30
22827;DHT22;11580;52.562;13.418;2024-01-15T04:51:44;7.70;29.30
22827;DHT22;11580;52.562;13.418;2024-01-15T04:54:11;7.70;29.80
22827;DHT22;11580;52.562;13.418;2024-01-15T04:56:43;7.70;29.80
22827;DHT22;11580;52.562;13.418;2024-01-15T04:59:12;7.70;29.20
22827;DHT22;11580;52.562;13.418;2024-01-15T05:01:40;7.70;29.00
22827;DHT22;11580;52.562;13.418;2024-01-15T05:04:07;7.70;29.20
22827;DHT22;11580;52.562;13.418;2024-01-15T05:06:34;7.70;29.20
22827;DHT22;11580;52.562;13.418;2024-01-15T05:09:01;7.70;29.20
22827;DHT22;11580;52.562;13.418;2024-01-15T05:11:29;7.70;29.10
22827;DHT22;11580;52.562;13.418;2024-01-15T05:13:57;7.70;29.10
22827;DHT22;11580;52.562;13.418;2024-01-15T05:16:25;7.70;29.00
22827;DHT22;11580;52.562;13.418;2024-01-15T05:18:52;7.70;28.80
22827;DHT22;11580;52.562;13.418;2024-01-15T05:21:19;7.70;28.90
22827;DHT22;11580;52.562;13.418;2024-01-15T05:23:46;7.70;29.00
22827;DHT22;11580;52.562;13.418;2024-01-15T05:26:14;7.70;28.90
22827;DHT22;11580;52.562;13.418;2024-01-15T05:28:41;7.80;29.10
22827;DHT22;11580;52.562;13.418;2024-01-15T05:31:09;7.80;29.10
22827;DHT22;11580;52.562;13.418;2024-01-15T05:33:38;7.70;29.00
22827;DHT22;11580;52.562;13.418;2024-01-15T05:36:06;7.70;28.90
22827;DHT22;11580;52.562;13.418;2024-01-15T05:38:33;7.70;28.90
22827;DHT22;11580;52.562;13.418;2024-01-15T05:41:00;7.70;29.50
22827;DHT22;11580;52.562;13.418;2024-01-15T05:43:28;7.70;29.00
22827;DHT22;11580;52.562;13.418;2024-01-15T05:45:55;7.60;29.00
22827;DHT22;11580;52.562;13.418;2024-01-15T05:48:22;7.60;29.00
22827;DHT22;11580;52.562;13.418;2024-01-15T05:50:50;7.60;29.00
22827;DHT22;11580;52.562;13.418;2024-01-15T05:53:17;7.60;29.50
22827;DHT22;11580;52.562;13.418;2024-01-15T05:55:45;7.60;29.10
22827;DHT22;11580;52.562;13.418;2024-01-15T05:58:12;7.60;29.10
22827;DHT22;11580;52.562;13.418;2024-01-15T06:00:39;7.60;29.70
22827;DHT22;11580;52.562;13.418;2024-01-15T06:03:06;7.60;29.60
22827;DHT22;11580;52.562;13.418;2024-01-15T06:05:33;7.70;29.30
22827;DHT22;11580;52.562;13.418;2024-01-15T06:08:02;7.60;29.80
22827;DHT22;11580;52.562;13.418;2024-01-15T06:10:30;7.60;29.10
22827;DHT22;11580;52.562;13.418;2024-01-15T06:12:57;7.60;29.70
22827;DHT22;11580;52.562;13.418;2024-01-15T06:15:24;7.60;29.10
22827;DHT22;11580;52.562;13.418;2024-01-15T06:17:51;7.60;29.70
22827;DHT22;11580;52.562;13.418;2024-01-15T06:20:19;7.60;29.70
22827;DHT22;11580;52.562;13.418;2024-01-15T06:22:46;7.60;29.10
22827;DHT22;11580;52.562;13.418;2024-01-15T06:25:15;7.60;29.10
22827;DHT22;11580;52.562;13.418;2024-01-15T06:27:42;7.60;29.00
22827;DHT22;11580;52.562;13.418;2024-01-15T06:30:10;7.70;29.20
22827;DHT22;11580;52.562;13.418;2024-01-15T06:32:38;7.60;29.00
22827;DHT22;11580;52.562;13.418;2024-01-15T06:35:06;7.70;29.10
22827;DHT22;11580;52.562;13.418;2024-01-15T06:37:36;7.70;29.00
22827;DHT22;11580;52.562;13.418;2024-01-15T06:40:04;7.70;29.10
22827;DHT22;11580;52.562;13.418;2024-01-15T06:42:33;7.70;29.00
22827;DHT22;11580;52.562;13.418;2024-01-15T06:45:00;7.70;29.40
22827;DHT22;11580;52.562;13.418;2024-01-15T06:47:27;7.80;29.10
22827;DHT22;11580;52.562;13.418;2024-01-15T06:49:55;7.80;29.10
22827;DHT22;11580;52.562;13.418;2024-01-15T06:52:22;7.80;29.00
22827;DHT22;11580;52.562;13.418;2024-01-15T06:54:49;7.80;29.00
22827;DHT22;11580;52.562;13.418;2024-01-15T06:57:16;7.80;29.00
22827;DHT22;11580;52.562;13.418;2024-01-15T06:59:47;7.80;29.60
22827;DHT22;11580;52.562;13.418;2024-01-15T07:02:14;7.80;28.90
22827;DHT22;11580;52.562;13.418;2024-01-15T07:04:41;7.80;29.00
22827;DHT22;11580;52.562;13.418;2024-01-15T07:07:08;7.90;29.00
22827;DHT22;11580;52.562;13.418;2024-01-15T07:09:35;7.90;29.00
22827;DHT22;11580;52.562;13.418;2024-01-15T07:12:03;7.90;28.90
22827;DHT22;11580;52.562;13.418;2024-01-15T07:14:30;7.90;28.90
22827;DHT22;11580;52.562;13.418;2024-01-15T07:16:59;7.80;28.80
22827;DHT22;11580;52.562;13.418;2024-01-15T07:19:26;7.80;28.70
22827;DHT22;11580;52.562;13.418;2024-01-15T07:21:53;7.80;28.70
22827;DHT22;11580;52.562;13.418;2024-01-15T07:24:21;7.80;28.80
22827;DHT22;11580;52.562;13.418;2024-01-15T07:26:48;7.80;28.90
22827;DHT22;11580;52.562;13.418;2024-01-15T07:29:15;7.70;28.80
22827;DHT22;11580;52.562;13.418;2024-01-15T07:31:48;7.70;28.90
22827;DHT22;11580;52.562;13.418;2024-01-15T07:34:17;7.80;28.90
22827;DHT22;11580;52.562;13.418;2024-01-15T07:36:45;7.70;29.30
22827;DHT22;11580;52.562;13.418;2024-01-15T07:39:12;7.70;28.90
22827;DHT22;11580;52.562;13.418;2024-01-15T07:41:40;7.60;28.90
22827;DHT22;11580;52.562;13.418;2024-01-15T07:44:07;7.60;29.00
22827;DHT22;11580;52.562;13.418;2024-01-15T07:46:34;7.60;29.00
22827;DHT22;11580;52.562;13.418;2024-01-15T07:49:02;7.60;29.00
22827;DHT22;11580;52.562;13.418;2024-01-15T07:51:32;7.60;29.00
22827;DHT22;11580;52.562;13.418;2024-01-15T07:53:59;7.60;29.00
22827;DHT22;11580;52.562;13.418;2024-01-15T07:56:26;7.60;29.00
22827;DHT22;11580;52.562;13.418;2024-01-15T07:58:54;7.60;29.00
22827;DHT22;11580;52.562;13.418;2024-01-15T08:01:21;7.70;28.90
22827;DHT22;11580;52.562;13.418;2024-01-15T08:03:48;7.70;29.00
22827;DHT22;11580;52.562;13.418;2024-01-15T08:06:15;7.70;29.00
22827;DHT22;11580;52.562;13.418;2024-01-15T08:08:44;7.70;29.10
22827;DHT22;11580;52.562;13.418;2024-01-15T08:11:11;7.70;29.00
22827;DHT22;11580;52.562;13.418;2024-01-15T08:13:38;7.70;29.10
22827;DHT22;11580;52.562;13.418;2024-01-15T08:16:06;7.70;29.10
22827;DHT22;11580;52.562;13.418;2024-01-15T08:18:33;7.70;29.00
22827;DHT22;11580;52.562;13.418;2024-01-15T08:21:00;7.70;29.50
22827;DHT22;11580;52.562;13.418;2024-01-15T08:23:28;7.80;29.00
22827;DHT22;11580;52.562;13.418;2024-01-15T08:25:58;7.80;29.00
22827;DHT22;11580;52.562;13.418;2024-01-15T08:28:25;7.80;29.50
22827;DHT22;11580;52.562;13.418;2024-01-15T08:30:52;7.80;29.10
22827;DHT22;11580;52.562;13.418;2024-01-15T08:33:19;7.80;29.00
22827;DHT22;11580;52.562;13.418;2024-01-15T08:35:46;7.90;29.00
22827;DHT22;11580;52.562;13.418;2024-01-15T08:38:13;7.90;29.00
22827;DHT22;11580;52.562;13.418;2024-01-15T08:40:41;8.00;29.00
22827;DHT22;11580;52.562;13.418;2024-01-15T08:43:09;8.00;29.50
22827;DHT22;11580;52.562;13.418;2024-01-15T08:45:36;8.00;28.70
22827;DHT22;11580;52.562;13.418;2024-01-15T08:48:04;8.10;28.90
22827;DHT22;11580;52.562;13.418;2024-01-15T08:50:31;8.10;28.80
22827;DHT22;11580;52.562;13.418;2024-01-15T08:52:59;8.10;28.80
22827;DHT22;11580;52.562;13.418;2024-01-15T08:55:26;8.10;28.70
22827;DHT22;11580;52.562;13.418;2024-01-15T08:57:53;8.20;28.60
22827;DHT22;11580;52.562;13.418;2024-01-15T09:00:22;8.20;28.60
22827;DHT22;11580;52.562;13.418;2024-01-15T09:02:49;8.20;28.40
22827;DHT22;11580;52.562;13.418;2024-01-15T09:05:16;8.20;28.50
22827;DHT22;11580;52.562;13.418;2024-01-15T09:07:44;8.20;28.50
22827;DHT22;11580;52.562;13.418;2024-01-15T09:10:11;8.20;29.10
22827;DHT22;11580;52.562;13.418;2024-01-15T09:12:39;8.20;28.20
22827;DHT22;11580;52.562;13.418;2024-01-15T09:15:06;8.30;28.20
22827;DHT22;11580;52.562;13.418;2024-01-15T09:17:35;8.30;28.20
22827;DHT22;11580;52.562;13.418;2024-01-15T09:20:02;8.30;28.20
22827;DHT22;11580;52.562;13.418;2024-01-15T09:22:31;8.30;28.20
22827;DHT22;11580;52.562;13.418;2024-01-15T09:24:59;8.30;28.70
22827;DHT22;11580;52.562;13.418;2024-01-15T09:27:26;8.30;28.20
22827;DHT22;11580;52.562;13.418;2024-01-15T09:29:53;8.30;28.80
22827;DHT22;11580;52.562;13.418;2024-01-15T09:32:20;8.30;28.20
22827;DHT22;11580;52.562;13.418;2024-01-15T09:34:49;8.30;28.20
22827;DHT22;11580;52.562;13.418;2024-01-15T09:37:16;8.30;28.20
22827;DHT22;11580;52.562;13.418;2024-01-15T09:39:43;8.30;28.20
22827;DHT22;11580;52.562;13.418;2024-01-15T09:42:11;8.30;28.50
22827;DHT22;11580;52.562;13.418;2024-01-15T09:44:38;8.30;28.60
22827;DHT22;11580;52.562;13.418;2024-01-15T09:47:07;8.40;28.70
22827;DHT22;11580;52.562;13.418;2024-01-15T09:49:34;8.50;28.70
22827;DHT22;11580;52.562;13.418;2024-01-15T09:52:05;8.50;28.40
22827;DHT22;11580;52.562;13.418;2024-01-15T09:54:33;8.60;28.40
22827;DHT22;11580;52.562;13.418;2024-01-15T09:57:00;8.70;28.40
22827;DHT22;11580;52.562;13.418;2024-01-15T09:59:28;8.80;28.50
22827;DHT22;11580;52.562;13.418;2024-01-15T10:01:57;8.90;29.10
22827;DHT22;11580;52.562;13.418;2024-01-15T10:04:26;8.90;29.10
22827;DHT22;11580;52.562;13.418;2024-01-15T10:06:54;9.00;28.50
22827;DHT22;11580;52.562;13.418;2024-01-15T10:09:24;9.10;28.10
22827;DHT22;11580;52.562;13.418;2024-01-15T10:11:51;9.10;28.00
22827;DHT22;11580;52.562;13.418;2024-01-15T10:14:19;9.20;28.50
22827;DHT22;11580;52.562;13.418;2024-01-15T10:16:47;9.20;28.10
22827;DHT22;11580;52.562;13.418;2024-01-15T10:19:14;9.30;28.20
22827;DHT22;11580;52.562;13.418;2024-01-15T10:21:41;9.30;28.10
22827;DHT22;11580;52.562;13.418;2024-01-15T10:24:08;9.40;28.10
22827;DHT22;11580;52.562;13.418;2024-01-15T10:26:37;9.40;28.00
22827;DHT22;11580;52.562;13.418;2024-01-15T10:29:04;9.50;27.80
22827;DHT22;11580;52.562;13.418;2024-01-15T10:31:31;9.50;28.00
22827;DHT22;11580;52.562;13.418;2024-01-15T10:34:10;9.60;28.50
22827;DHT22;11580;52.562;13.418;2024-01-15T10:36:39;9.60;26.50
22827;DHT22;11580;52.562;13.418;2024-01-15T10:39:07;9.70;27.30
22827;DHT22;11580;52.562;13.418;2024-01-15T10:41:34;9.60;27.60
22827;DHT22;11580;52.562;13.418;2024-01-15T10:44:03;9.60;27.00
22827;DHT22;11580;52.562;13.418;2024-01-15T10:46:31;9.60;26.70
22827;DHT22;11580;52.562;13.418;2024-01-15T10:49:00;9.60;26.70
22827;DHT22;11580;52.562;13.418;2024-01-15T10:51:28;9.50;27.40
22827;DHT22;11580;52.562;13.418;2024-01-15T10:53:56;9.50;27.50
22827;DHT22;11580;52.562;13.418;2024-01-15T10:56:25;9.50;27.00
22827;DHT22;11580;52.562;13.418;2024-01-15T10:58:55;9.40;27.00
22827;DHT22;11580;52.562;13.418;2024-01-15T11:01:24;9.40;27.00
22827;DHT22;11580;52.562;13.418;2024-01-15T11:03:52;9.40;26.80
22827;DHT22;11580;52.562;13.418;2024-01-15T11:06:24;9.40;27.00
22827;DHT22;11580;52.562;13.418;2024-01-15T11:08:52;9.40;26.90
22827;DHT22;11580;52.562;13.418;2024-01-15T11:11:21;9.40;27.00
22827;DHT22;11580;52.562;13.418;2024-01-15T11:13:49;9.40;26.90
22827;DHT22;11580;52.562;13.418;2024-01-15T11:16:18;9.40;26.80
22827;DHT22;11580;52.562;13.418;2024-01-15T11:19:04;9.40;26.70
22827;DHT22;11580;52.562;13.418;2024-01-15T11:21:42;9.40;25.70
22827;DHT22;11580;52.562;13.418;2024-01-15T11:24:09;9.40;26.50
22827;DHT22;11580;52.562;13.418;2024-01-15T11:26:44;9.40;26.50
22827;DHT22;11580;52.562;13.418;2024-01-15T11:29:30;9.40;26.30
22827;DHT22;11580;52.562;13.418;2024-01-15T11:32:16;9.40;25.60
22827;DHT22;11580;52.562;13.418;2024-01-15T11:34:54;9.40;25.90
22827;DHT22;11580;52.562;13.418;2024-01-15T11:37:28;9.40;26.10
22827;DHT22;11580;52.562;13.418;2024-01-15T11:40:18;9.40;27.30
22827;DHT22;11580;52.562;13.418;2024-01-15T11:42:46;9.50;26.70
22827;DHT22;11580;52.562;13.418;2024-01-15T11:45:16;9.50;26.80
22827;DHT22;11580;52.562;13.418;2024-01-15T11:48:09;9.50;26.40
22827;DHT22;11580;52.562;13.418;2024-01-15T11:50:41;9.50;26.10
22827;DHT22;11580;52.562;13.418;2024-01-15T11:53:28;9.40;26.30
22827;DHT22;11580;52.562;13.418;2024-01-15T11:56:02;9.40;26.40
22827;DHT22;11580;52.562;13.418;2024-01-15T11:58:34;9.30;26.70
22827;DHT22;11580;52.562;13.418;2024-01-15T12:01:03;9.30;26.90
22827;DHT22;11580;52.562;13.418;2024-01-15T12:03:32;9.20;27.00
22827;DHT22;11580;52.562;13.418;2024-01-15T12:06:01;9.10;27.10
22827;DHT22;11580;52.562;13.418;2024-01-15T12:08:28;9.00;27.70
22827;DHT22;11580;52.562;13.418;2024-01-15T12:10:56;8.90;27.30
22827;DHT22;11580;52.562;13.418;2024-01-15T12:13:23;8.80;27.40
22827;DHT22;11580;52.562;13.418;2024-01-15T12:15:50;8.70;27.40
22827;DHT22;11580;52.562;13.418;2024-01-15T12:18:19;8.70;27.60
22827;DHT22;11580;52.562;13.418;2024-01-15T12:20:46;8.60;27.70
22827;DHT22;11580;52.562;13.418;2024-01-15T12:23:15;8.50;27.70
22827;DHT22;11580;52.562;13.418;2024-01-15T12:25:43;8.40;27.90
22827;DHT22;11580;52.562;13.418;2024-01-15T12:28:10;8.40;28.10
22827;DHT22;11580;52.562;13.418;2024-01-15T12:30:38;8.30;28.70
22827;DHT22;11580;52.562;13.418;2024-01-15T12:33:07;8.30;28.20
22827;DHT22;11580;52.562;13.418;2024-01-15T12:35:34;8.30;28.20
22827;DHT22;11580;52.562;13.418;2024-01-15T12:38:03;8.30;28.20
22827;DHT22;11580;52.562;13.418;2024-01-15T12:40:32;8.20;28.10
22827;DHT22;11580;52.562;13.418;2024-01-15T12:43:01;8.20;28.20
22827;DHT22;11580;52.562;13.418;2024-01-15T12:45:28;8.20;28.10
22827;DHT22;11580;52.562;13.418;2024-01-15T12:47:57;8.20;28.10
22827;DHT22;11580;52.562;13.418;2024-01-15T12:50:24;8.20;28.70
22827;DHT22;11580;52.562;13.418;2024-01-15T12:52:52;8.10;28.10
22827;DHT22;11580;52.562;13.418;2024-01-15T12:55:19;8.10;28.10
22827;DHT22;11580;52.562;13.418;2024-01-15T12:57:48;8.00;28.20
22827;DHT22;11580;52.562;13.418;2024-01-15T13:00:18;8.00;28.10
22827;DHT22;11580;52.562;13.418;2024-01-15T13:02:45;8.00;28.20
22827;DHT22;11580;52.562;13.418;2024-01-15T13:05:12;8.00;28.40
22827;DHT22;11580;52.562;13.418;2024-01-15T13:07:39;7.90;29.10
22827;DHT22;11580;52.562;13.418;2024-01-15T13:10:06;7.90;28.70
22827;DHT22;11580;52.562;13.418;2024-01-15T13:12:35;7.90;28.70
22827;DHT22;11580;52.562;13.418;2024-01-15T13:15:04;7.90;28.80
22827;DHT22;11580;52.562;13.418;2024-01-15T13:17:31;8.00;28.70
22827;DHT22;11580;52.562;13.418;2024-01-15T13:19:58;8.00;29.30
22827;DHT22;11580;52.562;13.418;2024-01-15T13:22:25;8.00;28.60
22827;DHT22;11580;52.562;13.418;2024-01-15T13:24:57;8.00;28.50
22827;DHT22;11580;52.562;13.418;2024-01-15T13:27:24;8.00;29.00
22827;DHT22;11580;52.562;13.418;2024-01-15T13:29:51;8.00;29.10
22827;DHT22;11580;52.562;13.418;2024-01-15T13:32:24;8.00;28.40
22827;DHT22;11580;52.562;13.418;2024-01-15T13:34:52;8.00;28.10
22827;DHT22;11580;52.562;13.418;2024-01-15T13:37:21;8.00;28.30
22827;DHT22;11580;52.562;13.418;2024-01-15T13:39:50;8.00;28.20
22827;DHT22;11580;52.562;13.418;2024-01-15T13:42:17;8.00;28.30
22827;DHT22;11580;52.562;13.418;2024-01-15T13:44:47;8.00;28.40
22827;DHT22;11580;52.562;13.418;2024-01-15T13:47:14;8.00;28.30
22827;DHT22;11580;52.562;13.418;2024-01-15T13:49:43;8.10;29.00
22827;DHT22;11580;52.562;13.418;2024-01-15T13:52:10;8.10;28.30
22827;DHT22;11580;52.562;13.418;2024-01-15T13:54:38;8.10;28.90
22827;DHT22;11580;52.562;13.418;2024-01-15T13:57:05;8.10;28.90
22827;DHT22;11580;52.562;13.418;2024-01-15T13:59:32;8.10;28.50
22827;DHT22;11580;52.562;13.418;2024-01-15T14:02:00;8.10;28.90
22827;DHT22;11580;52.562;13.418;2024-01-15T14:04:27;8.10;28.10
22827;DHT22;11580;52.562;13.418;2024-01-15T14:06:55;8.10;28.10
22827;DHT22;11580;52.562;13.418;2024-01-15T14:09:22;8.10;28.10
22827;DHT22;11580;52.562;13.418;2024-01-15T14:11:51;8.10;28.60
22827;DHT22;11580;52.562;13.418;2024-01-15T14:14:18;8.10;28.10
22827;DHT22;11580;52.562;13.418;2024-01-15T14:16:46;8.10;28.10
22827;DHT22;11580;52.562;13.418;2024-01-15T14:19:13;8.00;28.60
22827;DHT22;11580;52.562;13.418;2024-01-15T14:21:40;8.00;28.00
22827;DHT22;11580;52.562;13.418;2024-01-15T14:24:09;8.00;28.00
22827;DHT22;11580;52.562;13.418;2024-01-15T14:26:36;7.90;28.10
22827;DHT22;11580;52.562;13.418;2024-01-15T14:29:03;7.90;27.90
22827;DHT22;11580;52.562;13.418;2024-01-15T14:31:31;7.90;27.90
22827;DHT22;11580;52.562;13.418;2024-01-15T14:34:00;7.90;27.90
22827;DHT22;11580;52.562;13.418;2024-01-15T14:36:28;7.90;28.20
22827;DHT22;11580;52.562;13.418;2024-01-15T14:38:55;7.90;27.80
22827;DHT22;11580;52.562;13.418;2024-01-15T14:41:24;7.80;27.70
22827;DHT22;11580;52.562;13.418;2024-01-15T14:43:51;7.80;28.10
22827;DHT22;11580;52.562;13.418;2024-01-15T14:46:18;7.80;27.50
22827;DHT22;11580;52.562;13.418;2024-01-15T14:48:46;7.80;27.90
22827;DHT22;11580;52.562;13.418;2024-01-15T14:51:13;7.90;27.50
22827;DHT22;11580;52.562;13.418;2024-01-15T14:53:42;7.80;27.40
22827;DHT22;11580;52.562;13.418;2024-01-15T14:56:10;7.70;27.30
22827;DHT22;11580;52.562;13.418;2024-01-15T14:58:38;7.70;27.20
22827;DHT22;11580;52.562;13.418;2024-01-15T15:01:05;7.70;27.20
22827;DHT22;11580;52.562;13.418;2024-01-15T15:03:32;7.60;27.30
22827;DHT22;11580;52.562;13.418;2024-01-15T15:06:00;7.60;27.90
22827;DHT22;11580;52.562;13.418;2024-01-15T15:08:27;7.60;27.60
22827;DHT22;11580;52.562;13.418;2024-01-15T15:10:54;7.50;27.70
22827;DHT22;11580;52.562;13.418;2024-01-15T15:13:22;7.50;27.60
22827;DHT22;11580;52.562;13.418;2024-01-15T15:15:52;7.50;27.60
22827;DHT22;11580;52.562;13.418;2024-01-15T15:18:20;7.50;27.50
22827;DHT22;11580;52.562;13.418;2024-01-15T15:20:48;7.50;27.30
22827;DHT22;11580;52.562;13.418;2024-01-15T15:23:15;7.40;27.20
22827;DHT22;11580;52.562;13.418;2024-01-15T15:25:43;7.40;27.20
22827;DHT22;11580;52.562;13.418;2024-01-15T15:28:11;7.30;27.30
22827;DHT22;11580;52.562;13.418;2024-01-15T15:30:40;7.20;27.30
22827;DHT22;11580;52.562;13.418;2024-01-15T15:33:08;7.20;27.50
22827;DHT22;11580;52.562;13.418;2024-01-15T15:35:35;7.10;27.50